^^
Meteo Knjazevac Station Historical Data
Daily Summary for August 12, 2020 Units:  Both    English   Metric
Daily Weekly Monthly Yearly Custom
  High: Low: Average:
Temperature: 87.4 °F /  30.8 °C 62.1 °F /  16.7 °C 71.8 °F /  22.1 °C
Dew Point: 73.7 °F /  23.2 °C 61.8 °F /  16.6 °C 67 °F /  19.4 °C
Humidity: 99% 55% 87%
Wind Speed: 9mph /  14.5km/h - 1.9mph /  3.1km/h
Wind Gust: 19mph /  30.6km/h - -
Wind- - SW
Pressure: 30.05 in /  1017.5 hPa 29.97 in /  1014.8 hPa -
Precipitation: 0.16 in /  4.06 mm    
Historical Graphs
 
 
Tabular Data for August 12, 2020
Time Temperature Dew Point Pressure Wind Wind Speed Wind Gust Humidity Rainfall Rate (Hourly) solar Conditions
00:00 67.6 °F /  19.8 °C 66.5 °F /  19.2 °C 30.00in /  1015.8hPa Calm   3mph /  4.8km/h 96% 0.00in /  0mm 0 W/m2
00:10 67.6 °F /  19.8 °C 66.5 °F /  19.2 °C 30.01in /  1016.1hPa West 2mph /  3.2km/h 3mph /  4.8km/h 96% 0.00in /  0mm 0 W/m2
00:20 67.6 °F /  19.8 °C 66.5 °F /  19.2 °C 30.00in /  1015.8hPa Calm   3mph /  4.8km/h 96% 0.00in /  0mm 0 W/m2
00:30 67.3 °F /  19.6 °C 66.1 °F /  18.9 °C 30.00in /  1015.8hPa WSW 1mph /  1.6km/h 2mph /  3.2km/h 96% 0.00in /  0mm 0 W/m2
00:40 66.9 °F /  19.4 °C 65.7 °F /  18.7 °C 30.01in /  1016.1hPa Calm   2mph /  3.2km/h 96% 0.00in /  0mm 0 W/m2
00:50 66.7 °F /  19.3 °C 65.6 °F /  18.7 °C 30.01in /  1016.1hPa WSW 1mph /  1.6km/h 3mph /  4.8km/h 96% 0.00in /  0mm 0 W/m2
01:00 66.2 °F /  19 °C 65 °F /  18.3 °C 30.01in /  1016.1hPa WSW 1mph /  1.6km/h 3mph /  4.8km/h 96% 0.00in /  0mm 0 W/m2
01:10 66 °F /  18.9 °C 65.4 °F /  18.6 °C 30.01in /  1016.1hPa Calm   2mph /  3.2km/h 98% 0.00in /  0mm 0 W/m2
01:20 65.8 °F /  18.8 °C 65.3 °F /  18.5 °C 30.01in /  1016.1hPa Calm   2mph /  3.2km/h 98% 0.00in /  0mm 0 W/m2
01:30 65.7 °F /  18.7 °C 65.1 °F /  18.4 °C 30.01in /  1016.1hPa WSW 1mph /  1.6km/h 2mph /  3.2km/h 98% 0.00in /  0mm 0 W/m2
01:40 65.5 °F /  18.6 °C 64.9 °F /  18.3 °C 30.01in /  1016.1hPa WNW 1mph /  1.6km/h 3mph /  4.8km/h 98% 0.00in /  0mm 0 W/m2
01:50 65.5 °F /  18.6 °C 64.9 °F /  18.3 °C 30.00in /  1015.8hPa West 2mph /  3.2km/h 3mph /  4.8km/h 98% 0.00in /  0mm 0 W/m2
02:00 65.5 °F /  18.6 °C 65.2 °F /  18.4 °C 30.01in /  1016.1hPa NW 1mph /  1.6km/h 3mph /  4.8km/h 99% 0.00in /  0mm 0 W/m2
02:10 65.1 °F /  18.4 °C 64.5 °F /  18.1 °C 30.01in /  1016.1hPa Calm   2mph /  3.2km/h 98% 0.00in /  0mm 0 W/m2
02:20 64.9 °F /  18.3 °C 64.4 °F /  18 °C 30.01in /  1016.1hPa WSW 1mph /  1.6km/h 2mph /  3.2km/h 98% 0.00in /  0mm 0 W/m2
02:30 64.6 °F /  18.1 °C 64 °F /  17.8 °C 30.01in /  1016.1hPa SW 1mph /  1.6km/h 3mph /  4.8km/h 98% 0.00in /  0mm 0 W/m2
02:40 64.2 °F /  17.9 °C 63.9 °F /  17.7 °C 30.01in /  1016.1hPa West 1mph /  1.6km/h 3mph /  4.8km/h 99% 0.00in /  0mm 0 W/m2
02:50 64.2 °F /  17.9 °C 63.9 °F /  17.7 °C 30.01in /  1016.1hPa Calm   2mph /  3.2km/h 99% 0.00in /  0mm 0 W/m2
03:00 64.2 °F /  17.9 °C 63.9 °F /  17.7 °C 30.01in /  1016.1hPa West 1mph /  1.6km/h 3mph /  4.8km/h 99% 0.00in /  0mm 0 W/m2
03:10 64.2 °F /  17.9 °C 63.9 °F /  17.7 °C 30.01in /  1016.1hPa WNW 1mph /  1.6km/h 3mph /  4.8km/h 99% 0.00in /  0mm 0 W/m2
03:20 64.2 °F /  17.9 °C 63.9 °F /  17.7 °C 30.01in /  1016.1hPa NW 1mph /  1.6km/h 2mph /  3.2km/h 99% 0.00in /  0mm 0 W/m2
03:30 63.9 °F /  17.7 °C 63.6 °F /  17.6 °C 30.01in /  1016.1hPa Calm   2mph /  3.2km/h 99% 0.00in /  0mm 0 W/m2
03:40 63.7 °F /  17.6 °C 63.4 °F /  17.4 °C 30.01in /  1016.1hPa West 1mph /  1.6km/h 2mph /  3.2km/h 99% 0.00in /  0mm 0 W/m2
03:50 63.7 °F /  17.6 °C 63.4 °F /  17.4 °C 30.01in /  1016.1hPa Calm   3mph /  4.8km/h 99% 0.00in /  0mm 0 W/m2
04:00 63.5 °F /  17.5 °C 63.2 °F /  17.3 °C 30.01in /  1016.1hPa Calm   2mph /  3.2km/h 99% 0.00in /  0mm 0 W/m2
04:10 63.3 °F /  17.4 °C 63 °F /  17.2 °C 30.01in /  1016.1hPa West 2mph /  3.2km/h 3mph /  4.8km/h 99% 0.00in /  0mm 0 W/m2
04:20 63.1 °F /  17.3 °C 62.9 °F /  17.2 °C 30.00in /  1015.8hPa Calm   2mph /  3.2km/h 99% 0.00in /  0mm 0 W/m2
04:30 63.1 °F /  17.3 °C 62.9 °F /  17.2 °C 30.00in /  1015.8hPa WSW 1mph /  1.6km/h 2mph /  3.2km/h 99% 0.00in /  0mm 0 W/m2
04:40 63 °F /  17.2 °C 62.7 °F /  17.1 °C 30.00in /  1015.8hPa Calm   3mph /  4.8km/h 99% 0.00in /  0mm 0 W/m2
04:50 62.8 °F /  17.1 °C 62.5 °F /  16.9 °C 30.00in /  1015.8hPa West 2mph /  3.2km/h 3mph /  4.8km/h 99% 0.00in /  0mm 0 W/m2
05:00 62.7 °F /  17.1 °C 62.5 °F /  16.9 °C 30.00in /  1015.8hPa West 1mph /  1.6km/h 5mph /  8km/h 99% 0.00in /  0mm 0 W/m2
05:10 62.4 °F /  16.9 °C 62.1 °F /  16.7 °C 30.01in /  1016.1hPa West 1mph /  1.6km/h 3mph /  4.8km/h 99% 0.00in /  0mm 0 W/m2
05:20 62.6 °F /  17 °C 62.3 °F /  16.8 °C 30.00in /  1015.8hPa NW 1mph /  1.6km/h 4mph /  6.4km/h 99% 0.00in /  0mm 0 W/m2
05:30 62.4 °F /  16.9 °C 62.1 °F /  16.7 °C 30.01in /  1016.1hPa West 1mph /  1.6km/h 3mph /  4.8km/h 99% 0.00in /  0mm 0 W/m2
05:40 62.4 °F /  16.9 °C 62.1 °F /  16.7 °C 30.01in /  1016.1hPa Calm   4mph /  6.4km/h 99% 0.00in /  0mm 6 W/m2
05:50 62.2 °F /  16.8 °C 62 °F /  16.7 °C 30.01in /  1016.1hPa WSW 1mph /  1.6km/h 2mph /  3.2km/h 99% 0.00in /  0mm 13 W/m2
06:00 62.1 °F /  16.7 °C 61.8 °F /  16.6 °C 30.01in /  1016.1hPa WSW 1mph /  1.6km/h 3mph /  4.8km/h 99% 0.00in /  0mm 25 W/m2
06:10 62.1 °F /  16.7 °C 61.8 °F /  16.6 °C 30.01in /  1016.1hPa NW 1mph /  1.6km/h 3mph /  4.8km/h 99% 0.00in /  0mm 40 W/m2
06:20 62.1 °F /  16.7 °C 61.8 °F /  16.6 °C 30.01in /  1016.1hPa WSW 1mph /  1.6km/h 2mph /  3.2km/h 99% 0.00in /  0mm 58 W/m2
06:30 62.1 °F /  16.7 °C 61.8 °F /  16.6 °C 30.01in /  1016.1hPa West 1mph /  1.6km/h 2mph /  3.2km/h 99% 0.00in /  0mm 78 W/m2
06:40 62.2 °F /  16.8 °C 62 °F /  16.7 °C 30.01in /  1016.1hPa Calm   3mph /  4.8km/h 99% 0.00in /  0mm 104 W/m2
06:50 62.6 °F /  17 °C 62.3 °F /  16.8 °C 30.02in /  1016.5hPa WNW 1mph /  1.6km/h 4mph /  6.4km/h 99% 0.00in /  0mm 120 W/m2
07:00 63 °F /  17.2 °C 62.7 °F /  17.1 °C 30.02in /  1016.5hPa Calm   4mph /  6.4km/h 99% 0.00in /  0mm 148 W/m2
07:10 63.5 °F /  17.5 °C 63.2 °F /  17.3 °C 30.02in /  1016.5hPa West 1mph /  1.6km/h 2mph /  3.2km/h 99% 0.00in /  0mm 183 W/m2
07:20 63.9 °F /  17.7 °C 63.6 °F /  17.6 °C 30.02in /  1016.5hPa West 1mph /  1.6km/h 3mph /  4.8km/h 99% 0.00in /  0mm 211 W/m2
07:30 64.5 °F /  18.1 °C 64.2 °F /  17.9 °C 30.02in /  1016.5hPa West 2mph /  3.2km/h 3mph /  4.8km/h 99% 0.00in /  0mm 242 W/m2
07:40 65.1 °F /  18.4 °C 64.8 °F /  18.2 °C 30.02in /  1016.5hPa WNW 2mph /  3.2km/h 3mph /  4.8km/h 99% 0.00in /  0mm 274 W/m2
07:50 65.8 °F /  18.8 °C 65.6 °F /  18.7 °C 30.02in /  1016.5hPa WSW 1mph /  1.6km/h 3mph /  4.8km/h 99% 0.00in /  0mm 308 W/m2
08:00 66.4 °F /  19.1 °C 66.1 °F /  18.9 °C 30.03in /  1016.8hPa Calm   3mph /  4.8km/h 99% 0.00in /  0mm 340 W/m2
08:10 66.9 °F /  19.4 °C 66.6 °F /  19.2 °C 30.03in /  1016.8hPa Calm   2mph /  3.2km/h 99% 0.00in /  0mm 382 W/m2
08:20 67.8 °F /  19.9 °C 67.5 °F /  19.7 °C 30.03in /  1016.8hPa Calm   2mph /  3.2km/h 99% 0.00in /  0mm 414 W/m2
08:30 68.6 °F /  20.3 °C 68.3 °F /  20.2 °C 30.03in /  1016.8hPa SW 1mph /  1.6km/h 2mph /  3.2km/h 99% 0.00in /  0mm 452 W/m2
08:40 69.4 °F /  20.8 °C 68.9 °F /  20.5 °C 30.03in /  1016.8hPa Calm   3mph /  4.8km/h 98% 0.00in /  0mm 496 W/m2
08:50 70.3 °F /  21.3 °C 69.1 °F /  20.6 °C 30.03in /  1016.8hPa Calm   3mph /  4.8km/h 96% 0.00in /  0mm 530 W/m2
09:00 71.8 °F /  22.1 °C 70.3 °F /  21.3 °C 30.02in /  1016.5hPa Calm   3mph /  4.8km/h 95% 0.00in /  0mm 568 W/m2
09:10 74 °F /  23.3 °C 71.2 °F /  21.8 °C 30.02in /  1016.5hPa South 1mph /  1.6km/h 4mph /  6.4km/h 91% 0.00in /  0mm 602 W/m2
09:20 75.6 °F /  24.2 °C 72.1 °F /  22.3 °C 30.02in /  1016.5hPa Calm   5mph /  8km/h 89% 0.00in /  0mm 629 W/m2
09:30 77.2 °F /  25.1 °C 72.4 °F /  22.4 °C 30.02in /  1016.5hPa South 2mph /  3.2km/h 5mph /  8km/h 85% 0.00in /  0mm 655 W/m2
09:40 78.5 °F /  25.8 °C 72.5 °F /  22.5 °C 30.02in /  1016.5hPa South 1mph /  1.6km/h 4mph /  6.4km/h 82% 0.00in /  0mm 680 W/m2
09:50 79.5 °F /  26.4 °C 73.2 °F /  22.9 °C 30.02in /  1016.5hPa SE 2mph /  3.2km/h 5mph /  8km/h 81% 0.00in /  0mm 704 W/m2
10:00 80.4 °F /  26.9 °C 73.7 °F /  23.2 °C 30.02in /  1016.5hPa Calm   3mph /  4.8km/h 80% 0.00in /  0mm 726 W/m2
10:10 81.2 °F /  27.3 °C 73.7 °F /  23.2 °C 30.02in /  1016.5hPa WSW 1mph /  1.6km/h 4mph /  6.4km/h 78% 0.00in /  0mm 748 W/m2
10:20 81.9 °F /  27.7 °C 72.8 °F /  22.7 °C 30.02in /  1016.5hPa South 1mph /  1.6km/h 3mph /  4.8km/h 74% 0.00in /  0mm 768 W/m2
10:30 82.6 °F /  28.1 °C 73.4 °F /  23 °C 30.02in /  1016.5hPa WSW 2mph /  3.2km/h 6mph /  9.7km/h 74% 0.00in /  0mm 787 W/m2
10:40 82.9 °F /  28.3 °C 73.4 °F /  23 °C 30.01in /  1016.1hPa WSW 2mph /  3.2km/h 5mph /  8km/h 73% 0.00in /  0mm 805 W/m2
10:50 84 °F /  28.9 °C 73.6 °F /  23.1 °C 30.01in /  1016.1hPa SSE 2mph /  3.2km/h 6mph /  9.7km/h 71% 0.00in /  0mm 232 W/m2
11:00 84.6 °F /  29.2 °C 73.3 °F /  22.9 °C 30.01in /  1016.1hPa NNE 1mph /  1.6km/h 7mph /  11.3km/h 69% 0.00in /  0mm 837 W/m2
11:10 84.9 °F /  29.4 °C 73.2 °F /  22.9 °C 30.01in /  1016.1hPa NE 1mph /  1.6km/h 6mph /  9.7km/h 68% 0.00in /  0mm 409 W/m2
11:20 85.5 °F /  29.7 °C 72.3 °F /  22.4 °C 30.01in /  1016.1hPa NE 3mph /  4.8km/h 8mph /  12.9km/h 65% 0.00in /  0mm 347 W/m2
11:30 85.3 °F /  29.6 °C 72.6 °F /  22.6 °C 30.01in /  1016.1hPa ENE 1mph /  1.6km/h 8mph /  12.9km/h 66% 0.00in /  0mm 873 W/m2
11:40 85.4 °F /  29.7 °C 72.7 °F /  22.6 °C 30.01in /  1016.1hPa East 1mph /  1.6km/h 7mph /  11.3km/h 66% 0.00in /  0mm 471 W/m2
11:50 85.6 °F /  29.8 °C 73.4 °F /  23 °C 30.01in /  1016.1hPa NE 5mph /  8km/h 8mph /  12.9km/h 67% 0.00in /  0mm 798 W/m2
12:00 85.3 °F /  29.6 °C 71.7 °F /  22.1 °C 30.00in /  1015.8hPa NNE 3mph /  4.8km/h 8mph /  12.9km/h 64% 0.00in /  0mm 539 W/m2
12:10 85.6 °F /  29.8 °C 73 °F /  22.8 °C 30.00in /  1015.8hPa Calm   7mph /  11.3km/h 66% 0.00in /  0mm 901 W/m2
12:20 86.1 °F /  30.1 °C 72.5 °F /  22.5 °C 30.00in /  1015.8hPa North 5mph /  8km/h 8mph /  12.9km/h 64% 0.00in /  0mm 904 W/m2
12:30 86.6 °F /  30.3 °C 73 °F /  22.8 °C 30.00in /  1015.8hPa NE 5mph /  8km/h 10mph /  16.1km/h 64% 0.00in /  0mm 854 W/m2
12:40 86.4 °F /  30.2 °C 72.7 °F /  22.6 °C 30.00in /  1015.8hPa North 1mph /  1.6km/h 10mph /  16.1km/h 64% 0.00in /  0mm 573 W/m2
12:50 85.9 °F /  29.9 °C 71.9 °F /  22.2 °C 30.00in /  1015.8hPa Calm   4mph /  6.4km/h 63% 0.00in /  0mm 562 W/m2
13:00 86.2 °F /  30.1 °C 72.2 °F /  22.3 °C 29.99in /  1015.5hPa NW 2mph /  3.2km/h 6mph /  9.7km/h 63% 0.00in /  0mm 900 W/m2
13:10 86.2 °F /  30.1 °C 71.6 °F /  22 °C 29.99in /  1015.5hPa WNW 2mph /  3.2km/h 8mph /  12.9km/h 62% 0.00in /  0mm 895 W/m2
13:20 86.8 °F /  30.4 °C 72.2 °F /  22.3 °C 29.99in /  1015.5hPa NW 2mph /  3.2km/h 8mph /  12.9km/h 62% 0.00in /  0mm 889 W/m2
13:30 87.4 °F /  30.8 °C 71.3 °F /  21.8 °C 29.99in /  1015.5hPa NNW 2mph /  3.2km/h 6mph /  9.7km/h 59% 0.00in /  0mm 876 W/m2
13:40 87.1 °F /  30.6 °C 71 °F /  21.7 °C 29.98in /  1015.1hPa NW 3mph /  4.8km/h 10mph /  16.1km/h 59% 0.00in /  0mm 791 W/m2
13:50 87.1 °F /  30.6 °C 70 °F /  21.1 °C 29.98in /  1015.1hPa NW 6mph /  9.7km/h 9mph /  14.5km/h 57% 0.00in /  0mm 410 W/m2
14:00 87.1 °F /  30.6 °C 71 °F /  21.7 °C 29.98in /  1015.1hPa NW 6mph /  9.7km/h 12mph /  19.3km/h 59% 0.00in /  0mm 847 W/m2
14:10 86.5 °F /  30.3 °C 69.4 °F /  20.8 °C 29.99in /  1015.5hPa WNW 8mph /  12.9km/h 15mph /  24.1km/h 57% 0.00in /  0mm 762 W/m2
14:20 85.6 °F /  29.8 °C 69.2 °F /  20.7 °C 29.99in /  1015.5hPa NNW 8mph /  12.9km/h 16mph /  25.7km/h 58% 0.00in /  0mm 818 W/m2
14:30 86.2 °F /  30.1 °C 69.2 °F /  20.7 °C 29.98in /  1015.1hPa NNW 2mph /  3.2km/h 14mph /  22.5km/h 57% 0.00in /  0mm 377 W/m2
14:40 85.6 °F /  29.8 °C 67.6 °F /  19.8 °C 29.98in /  1015.1hPa NNW 3mph /  4.8km/h 9mph /  14.5km/h 55% 0.00in /  0mm 265 W/m2
14:50 84.9 °F /  29.4 °C 68.5 °F /  20.3 °C 29.98in /  1015.1hPa NNW 1mph /  1.6km/h 7mph /  11.3km/h 58% 0.00in /  0mm 203 W/m2
15:00 84.1 °F /  28.9 °C 69.2 °F /  20.7 °C 29.98in /  1015.1hPa NNW 3mph /  4.8km/h 8mph /  12.9km/h 61% 0.00in /  0mm 178 W/m2
15:10 83.3 °F /  28.5 °C 69.4 °F /  20.8 °C 29.98in /  1015.1hPa NW 3mph /  4.8km/h 7mph /  11.3km/h 63% 0.00in /  0mm 224 W/m2
15:20 82.9 °F /  28.3 °C 69.9 °F /  21.1 °C 29.98in /  1015.1hPa West 5mph /  8km/h 7mph /  11.3km/h 65% 0.00in /  0mm 232 W/m2
15:30 82.6 °F /  28.1 °C 70.9 °F /  21.6 °C 29.98in /  1015.1hPa WSW 2mph /  3.2km/h 8mph /  12.9km/h 68% 0.00in /  0mm 158 W/m2
15:40 82.1 °F /  27.8 °C 69.7 °F /  20.9 °C 29.97in /  1014.8hPa WSW 2mph /  3.2km/h 7mph /  11.3km/h 66% 0.00in /  0mm 176 W/m2
15:50 82 °F /  27.8 °C 69.6 °F /  20.9 °C 29.98in /  1015.1hPa WSW 7mph /  11.3km/h 8mph /  12.9km/h 66% 0.00in /  0mm 623 W/m2
16:00 82.4 °F /  28 °C 70.8 °F /  21.6 °C 29.98in /  1015.1hPa SW 8mph /  12.9km/h 13mph /  20.9km/h 68% 0.00in /  0mm 596 W/m2
16:10 81.7 °F /  27.6 °C 70.1 °F /  21.2 °C 29.98in /  1015.1hPa WSW 7mph /  11.3km/h 14mph /  22.5km/h 68% 0.00in /  0mm 147 W/m2
16:20 80.2 °F /  26.8 °C 68.6 °F /  20.3 °C 29.98in /  1015.1hPa SW 9mph /  14.5km/h 19mph /  30.6km/h 68% 0.00in /  0mm 95 W/m2
16:30 79.1 °F /  26.2 °C 67.2 °F /  19.6 °C 29.99in /  1015.5hPa SW 9mph /  14.5km/h 14mph /  22.5km/h 67% 0.00in /  0mm 47 W/m2
16:40 77.7 °F /  25.4 °C 66.3 °F /  19.1 °C 29.99in /  1015.5hPa SW 7mph /  11.3km/h 15mph /  24.1km/h 68% 0.00in /  0mm 30 W/m2
16:50 76.8 °F /  24.9 °C 65.9 °F /  18.8 °C 29.99in /  1015.5hPa SW 5mph /  8km/h 12mph /  19.3km/h 69% 0.00in /  0mm 29 W/m2
17:00 76.3 °F /  24.6 °C 65.4 °F /  18.6 °C 29.99in /  1015.5hPa SW 3mph /  4.8km/h 9mph /  14.5km/h 69% 0.00in /  0mm 17 W/m2
17:40 73.3 °F /  22.9 °C 66.9 °F /  19.4 °C 30.00in /  1015.8hPa SW 3.5mph /  5.6km/h 12mph /  19.3km/h 80.5% 0.01in /  0.25mm 23 W/m2
17:50 71.1 °F /  21.7 °C 66.3 °F /  19.1 °C 30.01in /  1016.1hPa WSW 1mph /  1.6km/h 10mph /  16.1km/h 85% 0.00in /  0mm 17 W/m2
18:00 70.7 °F /  21.5 °C 66.6 °F /  19.2 °C 30.01in /  1016.1hPa WSW 5mph /  8km/h 8mph /  12.9km/h 87% 0.01in /  0.25mm 17 W/m2
18:10 70 °F /  21.1 °C 66.6 °F /  19.2 °C 30.01in /  1016.1hPa SW 3mph /  4.8km/h 11mph /  17.7km/h 89% 0.02in /  0.51mm 13 W/m2
18:20 69.8 °F /  21 °C 66.7 °F /  19.3 °C 30.02in /  1016.5hPa NE 3mph /  4.8km/h 5mph /  8km/h 90% 0.01in /  0.25mm 15 W/m2
18:30 69.7 °F /  20.9 °C 67 °F /  19.4 °C 30.03in /  1016.8hPa NNE 5mph /  8km/h 7mph /  11.3km/h 91% 0.00in /  0mm 14 W/m2
18:40 69.3 °F /  20.7 °C 66.3 °F /  19.1 °C 30.04in /  1017.2hPa North 5mph /  8km/h 8mph /  12.9km/h 90% 0.01in /  0.25mm 12 W/m2
18:50 69.1 °F /  20.6 °C 67.3 °F /  19.6 °C 30.05in /  1017.5hPa NNE 3mph /  4.8km/h 8mph /  12.9km/h 94% 0.01in /  0.25mm 5 W/m2
19:00 68.7 °F /  20.4 °C 66.9 °F /  19.4 °C 30.05in /  1017.5hPa West 2mph /  3.2km/h 6mph /  9.7km/h 94% 0.01in /  0.25mm 6 W/m2
19:10 68.5 °F /  20.3 °C 67.1 °F /  19.5 °C 30.04in /  1017.2hPa SW 5mph /  8km/h 10mph /  16.1km/h 95% 0.00in /  0mm 9 W/m2
19:20 68 °F /  20 °C 66.8 °F /  19.3 °C 30.04in /  1017.2hPa SW 5mph /  8km/h 11mph /  17.7km/h 96% 0.01in /  0.25mm 5 W/m2
19:30 67.8 °F /  19.9 °C 66.6 °F /  19.2 °C 30.04in /  1017.2hPa SW 1mph /  1.6km/h 7mph /  11.3km/h 96% 0.00in /  0mm 2 W/m2
19:40 67.8 °F /  19.9 °C 66.6 °F /  19.2 °C 30.04in /  1017.2hPa SSE 1mph /  1.6km/h 4mph /  6.4km/h 96% 0.00in /  0mm 0 W/m2
19:50 67.8 °F /  19.9 °C 66.6 °F /  19.2 °C 30.04in /  1017.2hPa NE 2mph /  3.2km/h 4mph /  6.4km/h 96% 0.00in /  0mm 0 W/m2
20:00 67.8 °F /  19.9 °C 66.6 °F /  19.2 °C 30.04in /  1017.2hPa NNE 2mph /  3.2km/h 5mph /  8km/h 96% 0.00in /  0mm 0 W/m2
20:10 67.8 °F /  19.9 °C 66.6 °F /  19.2 °C 30.04in /  1017.2hPa NE 1mph /  1.6km/h 5mph /  8km/h 96% 0.00in /  0mm 0 W/m2
20:20 67.8 °F /  19.9 °C 66.9 °F /  19.4 °C 30.04in /  1017.2hPa SSE 2mph /  3.2km/h 5mph /  8km/h 97% 0.00in /  0mm 0 W/m2
20:30 67.8 °F /  19.9 °C 66.9 °F /  19.4 °C 30.04in /  1017.2hPa SSW 2mph /  3.2km/h 4mph /  6.4km/h 97% 0.00in /  0mm 0 W/m2
20:40 67.7 °F /  19.8 °C 66.5 °F /  19.2 °C 30.05in /  1017.5hPa SSW 2mph /  3.2km/h 6mph /  9.7km/h 96% 0.00in /  0mm 0 W/m2
20:50 67.6 °F /  19.8 °C 66.5 °F /  19.2 °C 30.05in /  1017.5hPa South 1mph /  1.6km/h 5mph /  8km/h 96% 0.00in /  0mm 0 W/m2
21:00 67.6 °F /  19.8 °C 66.8 °F /  19.3 °C 30.05in /  1017.5hPa WSW 1mph /  1.6km/h 4mph /  6.4km/h 97% 0.00in /  0mm 0 W/m2
21:10 67.3 °F /  19.6 °C 66.7 °F /  19.3 °C 30.05in /  1017.5hPa WSW 2mph /  3.2km/h 4mph /  6.4km/h 98% 0.00in /  0mm 0 W/m2
21:20 66.9 °F /  19.4 °C 66.3 °F /  19.1 °C 30.05in /  1017.5hPa West 1mph /  1.6km/h 5mph /  8km/h 98% 0.00in /  0mm 0 W/m2
21:30 66.5 °F /  19.2 °C 65.9 °F /  18.8 °C 30.05in /  1017.5hPa West 2mph /  3.2km/h 6mph /  9.7km/h 98% 0.00in /  0mm 0 W/m2
21:40 66.1 °F /  18.9 °C 65.5 °F /  18.6 °C 30.05in /  1017.5hPa West 1mph /  1.6km/h 6mph /  9.7km/h 98% 0.00in /  0mm 0 W/m2
21:50 65.8 °F /  18.8 °C 65.3 °F /  18.5 °C 30.05in /  1017.5hPa SW 1mph /  1.6km/h 3mph /  4.8km/h 98% 0.00in /  0mm 0 W/m2
22:00 65.7 °F /  18.7 °C 65.1 °F /  18.4 °C 30.05in /  1017.5hPa West 2mph /  3.2km/h 3mph /  4.8km/h 98% 0.00in /  0mm 0 W/m2
22:10 65.5 °F /  18.6 °C 65.2 °F /  18.4 °C 30.05in /  1017.5hPa West 1mph /  1.6km/h 3mph /  4.8km/h 99% 0.00in /  0mm 0 W/m2
22:20 65.1 °F /  18.4 °C 64.8 °F /  18.2 °C 30.05in /  1017.5hPa West 1mph /  1.6km/h 4mph /  6.4km/h 99% 0.00in /  0mm 0 W/m2
22:30 64.9 °F /  18.3 °C 64.7 °F /  18.2 °C 30.05in /  1017.5hPa West 2mph /  3.2km/h 3mph /  4.8km/h 99% 0.00in /  0mm 0 W/m2
22:40 64.8 °F /  18.2 °C 64.5 °F /  18.1 °C 30.05in /  1017.5hPa West 1mph /  1.6km/h 3mph /  4.8km/h 99% 0.00in /  0mm 0 W/m2
22:50 64.6 °F /  18.1 °C 64.3 °F /  17.9 °C 30.05in /  1017.5hPa West 1mph /  1.6km/h 3mph /  4.8km/h 99% 0.00in /  0mm 0 W/m2
23:00 64.4 °F /  18 °C 64.1 °F /  17.8 °C 30.05in /  1017.5hPa WNW 1mph /  1.6km/h 3mph /  4.8km/h 99% 0.00in /  0mm 0 W/m2
23:10 64.2 °F /  17.9 °C 63.9 °F /  17.7 °C 30.05in /  1017.5hPa Calm   2mph /  3.2km/h 99% 0.00in /  0mm 0 W/m2
23:20 63.9 °F /  17.7 °C 63.6 °F /  17.6 °C 30.05in /  1017.5hPa WSW 2mph /  3.2km/h 3mph /  4.8km/h 99% 0.00in /  0mm 0 W/m2
23:30 63.5 °F /  17.5 °C 63.2 °F /  17.3 °C 30.05in /  1017.5hPa Calm   2mph /  3.2km/h 99% 0.00in /  0mm 0 W/m2
23:40 63.4 °F /  17.4 °C 63.2 °F /  17.3 °C 30.05in /  1017.5hPa Calm   2mph /  3.2km/h 99% 0.00in /  0mm 0 W/m2
Knjazevac, Serbia
Compliments of Weather Underground - 2 mb